<?xml version="1.0" encoding="UTF-8" standalone="no" ?>
<gpx xmlns="http://www.topografix.com/GPX/1/1" xmlns:xsi="http://www.w3.org/2001/XMLSchema-instance" xsi:schemaLocation="http://www.topografix.com/GPX/1/1 http://www.topografix.com/GPX/1/1/gpx.xsd" version="1.1" creator="VisuGPX - https://www.visugpx.com">
  <metadata>
    <name>Turquie_100points</name>
  </metadata>
  <trk>
    <name><![CDATA[Tour d'Europe: étape 575]]></name>
    <extensions>
      <line xmlns="http://www.topografix.com/GPX/gpx_style/0/2">
        <color>880000</color>
        <width>4</width>
      </line>
    </extensions>
    <trkseg>
      <trkpt lat="36.27494" lon="29.31993">
        <ele>36.676769</ele>
        <time>2022-01-24T06:14:46.866Z</time>
      </trkpt>
      <trkpt lat="36.27616" lon="29.32046">
        <ele>35.71541</ele>
        <time>2022-01-24T06:15:41.841Z</time>
      </trkpt>
      <trkpt lat="36.27871" lon="29.32101">
        <ele>27.396921</ele>
        <time>2022-01-24T06:17:04.896Z</time>
      </trkpt>
      <trkpt lat="36.28093" lon="29.32148">
        <ele>32.900195</ele>
        <time>2022-01-24T06:18:21.864Z</time>
      </trkpt>
      <trkpt lat="36.28327" lon="29.32099">
        <ele>30.978988</ele>
        <time>2022-01-24T06:19:24.857Z</time>
      </trkpt>
      <trkpt lat="36.28551" lon="29.31865">
        <ele>15.965649</ele>
        <time>2022-01-24T06:20:35.896Z</time>
      </trkpt>
      <trkpt lat="36.28768" lon="29.32026">
        <ele>15.284346</ele>
        <time>2022-01-24T06:21:44.851Z</time>
      </trkpt>
      <trkpt lat="36.28978" lon="29.3227">
        <ele>12.440922</ele>
        <time>2022-01-24T06:22:56.859Z</time>
      </trkpt>
      <trkpt lat="36.29191" lon="29.32505">
        <ele>17.244703</ele>
        <time>2022-01-24T06:24:08.855Z</time>
      </trkpt>
      <trkpt lat="36.29413" lon="29.32711">
        <ele>23.08107</ele>
        <time>2022-01-24T06:25:17.876Z</time>
      </trkpt>
      <trkpt lat="36.29638" lon="29.32876">
        <ele>24.022249</ele>
        <time>2022-01-24T06:26:30.879Z</time>
      </trkpt>
      <trkpt lat="36.29817" lon="29.33028">
        <ele>28.06231</ele>
        <time>2022-01-24T06:27:44.870Z</time>
      </trkpt>
      <trkpt lat="36.30048" lon="29.33178">
        <ele>25.943678</ele>
        <time>2022-01-24T06:28:56.867Z</time>
      </trkpt>
      <trkpt lat="36.30268" lon="29.33321">
        <ele>26.189883</ele>
        <time>2022-01-24T06:30:05.864Z</time>
      </trkpt>
      <trkpt lat="36.30494" lon="29.33471">
        <ele>26.032255</ele>
        <time>2022-01-24T06:31:17.865Z</time>
      </trkpt>
      <trkpt lat="36.30722" lon="29.33624">
        <ele>28.049253</ele>
        <time>2022-01-24T06:32:30.865Z</time>
      </trkpt>
      <trkpt lat="36.30941" lon="29.33761">
        <ele>27.674455</ele>
        <time>2022-01-24T06:33:39.892Z</time>
      </trkpt>
      <trkpt lat="36.31157" lon="29.33904">
        <ele>26.743926</ele>
        <time>2022-01-24T06:34:51.877Z</time>
      </trkpt>
      <trkpt lat="36.31371" lon="29.34065">
        <ele>27.330568</ele>
        <time>2022-01-24T06:36:04.874Z</time>
      </trkpt>
      <trkpt lat="36.31595" lon="29.34215">
        <ele>29.58211</ele>
        <time>2022-01-24T06:37:16.870Z</time>
      </trkpt>
      <trkpt lat="36.31806" lon="29.34361">
        <ele>28.687757</ele>
        <time>2022-01-24T06:38:25.890Z</time>
      </trkpt>
      <trkpt lat="36.32031" lon="29.34501">
        <ele>27.230071</ele>
        <time>2022-01-24T06:39:38.868Z</time>
      </trkpt>
      <trkpt lat="36.3224" lon="29.34645">
        <ele>26.885276</ele>
        <time>2022-01-24T06:40:59.880Z</time>
      </trkpt>
      <trkpt lat="36.3245" lon="29.3476">
        <ele>25.871838</ele>
        <time>2022-01-24T06:42:14.891Z</time>
      </trkpt>
      <trkpt lat="36.3268" lon="29.34869">
        <ele>27.543528</ele>
        <time>2022-01-24T06:43:32.889Z</time>
      </trkpt>
      <trkpt lat="36.32907" lon="29.34985">
        <ele>26.761277</ele>
        <time>2022-01-24T06:44:51.880Z</time>
      </trkpt>
      <trkpt lat="36.33111" lon="29.35111">
        <ele>25.781662</ele>
        <time>2022-01-24T06:46:04.881Z</time>
      </trkpt>
      <trkpt lat="36.33333" lon="29.35246">
        <ele>27.373277</ele>
        <time>2022-01-24T06:47:23.890Z</time>
      </trkpt>
      <trkpt lat="36.3356" lon="29.35374">
        <ele>26.179005</ele>
        <time>2022-01-24T06:48:41.875Z</time>
      </trkpt>
      <trkpt lat="36.33779" lon="29.35496">
        <ele>24.969779</ele>
        <time>2022-01-24T06:49:58.896Z</time>
      </trkpt>
      <trkpt lat="36.33994" lon="29.35618">
        <ele>27.930682</ele>
        <time>2022-01-24T06:51:14.897Z</time>
      </trkpt>
      <trkpt lat="36.34213" lon="29.35741">
        <ele>27.277019</ele>
        <time>2022-01-24T06:52:33.930Z</time>
      </trkpt>
      <trkpt lat="36.34396" lon="29.35893">
        <ele>26.912265</ele>
        <time>2022-01-24T06:53:51.879Z</time>
      </trkpt>
      <trkpt lat="36.34392" lon="29.36094">
        <ele>30.082669</ele>
        <time>2022-01-24T06:55:09.909Z</time>
      </trkpt>
      <trkpt lat="36.34589" lon="29.35997">
        <ele>39.21536</ele>
        <time>2022-01-24T06:57:12.878Z</time>
      </trkpt>
      <trkpt lat="36.34805" lon="29.35924">
        <ele>45.048361</ele>
        <time>2022-01-24T06:59:21.886Z</time>
      </trkpt>
      <trkpt lat="36.35033" lon="29.35906">
        <ele>56.83664</ele>
        <time>2022-01-24T07:04:10.930Z</time>
      </trkpt>
      <trkpt lat="36.35222" lon="29.35769">
        <ele>73.13348</ele>
        <time>2022-01-24T07:06:49.883Z</time>
      </trkpt>
      <trkpt lat="36.3539" lon="29.35584">
        <ele>86.250339</ele>
        <time>2022-01-24T07:10:14.893Z</time>
      </trkpt>
      <trkpt lat="36.35602" lon="29.35499">
        <ele>104.385777</ele>
        <time>2022-01-24T07:13:18.876Z</time>
      </trkpt>
      <trkpt lat="36.35823" lon="29.35422">
        <ele>114.100018</ele>
        <time>2022-01-24T07:18:31.911Z</time>
      </trkpt>
      <trkpt lat="36.36029" lon="29.35408">
        <ele>123.728653</ele>
        <time>2022-01-24T07:20:54.894Z</time>
      </trkpt>
      <trkpt lat="36.36244" lon="29.35313">
        <ele>137.061177</ele>
        <time>2022-01-24T07:23:11.930Z</time>
      </trkpt>
      <trkpt lat="36.36478" lon="29.35288">
        <ele>144.303306</ele>
        <time>2022-01-24T07:24:59.911Z</time>
      </trkpt>
      <trkpt lat="36.36711" lon="29.35255">
        <ele>153.599644</ele>
        <time>2022-01-24T07:26:49.901Z</time>
      </trkpt>
      <trkpt lat="36.36963" lon="29.35222">
        <ele>149.979564</ele>
        <time>2022-01-24T07:28:09.890Z</time>
      </trkpt>
      <trkpt lat="36.37207" lon="29.35189">
        <ele>152.854244</ele>
        <time>2022-01-24T07:29:50.907Z</time>
      </trkpt>
      <trkpt lat="36.37431" lon="29.35156">
        <ele>157.428071</ele>
        <time>2022-01-24T07:31:38.891Z</time>
      </trkpt>
      <trkpt lat="36.37682" lon="29.35129">
        <ele>168.873053</ele>
        <time>2022-01-24T07:33:11.905Z</time>
      </trkpt>
      <trkpt lat="36.37923" lon="29.35114">
        <ele>171.41221</ele>
        <time>2022-01-24T07:35:06.900Z</time>
      </trkpt>
      <trkpt lat="36.38178" lon="29.35109">
        <ele>170.639676</ele>
        <time>2022-01-24T07:36:31.900Z</time>
      </trkpt>
      <trkpt lat="36.38457" lon="29.35049">
        <ele>163.899586</ele>
        <time>2022-01-24T07:37:35.893Z</time>
      </trkpt>
      <trkpt lat="36.38769" lon="29.35085">
        <ele>156.163761</ele>
        <time>2022-01-24T07:38:28.897Z</time>
      </trkpt>
      <trkpt lat="36.39146" lon="29.35135">
        <ele>143.644129</ele>
        <time>2022-01-24T07:39:16.893Z</time>
      </trkpt>
      <trkpt lat="36.39503" lon="29.35206">
        <ele>125.139217</ele>
        <time>2022-01-24T07:39:58.906Z</time>
      </trkpt>
      <trkpt lat="36.39789" lon="29.35305">
        <ele>105.414409</ele>
        <time>2022-01-24T07:40:49.885Z</time>
      </trkpt>
      <trkpt lat="36.40048" lon="29.35411">
        <ele>100.415932</ele>
        <time>2022-01-24T07:41:57.915Z</time>
      </trkpt>
      <trkpt lat="36.40269" lon="29.35474">
        <ele>111.16805</ele>
        <time>2022-01-24T07:43:56.901Z</time>
      </trkpt>
      <trkpt lat="36.40509" lon="29.35439">
        <ele>125.302761</ele>
        <time>2022-01-24T07:45:43.900Z</time>
      </trkpt>
      <trkpt lat="36.40707" lon="29.35293">
        <ele>138.426589</ele>
        <time>2022-01-24T07:47:44.898Z</time>
      </trkpt>
      <trkpt lat="36.40964" lon="29.35174">
        <ele>123.224744</ele>
        <time>2022-01-24T07:48:47.900Z</time>
      </trkpt>
      <trkpt lat="36.41222" lon="29.35117">
        <ele>118.907591</ele>
        <time>2022-01-24T07:50:00.916Z</time>
      </trkpt>
      <trkpt lat="36.4145" lon="29.3504">
        <ele>122.249176</ele>
        <time>2022-01-24T07:51:32.896Z</time>
      </trkpt>
      <trkpt lat="36.41705" lon="29.35023">
        <ele>125.076058</ele>
        <time>2022-01-24T07:53:11.893Z</time>
      </trkpt>
      <trkpt lat="36.41938" lon="29.35024">
        <ele>131.318255</ele>
        <time>2022-01-24T07:55:05.901Z</time>
      </trkpt>
      <trkpt lat="36.4219" lon="29.35024">
        <ele>136.486406</ele>
        <time>2022-01-24T07:56:42.917Z</time>
      </trkpt>
      <trkpt lat="36.42428" lon="29.35012">
        <ele>147.389372</ele>
        <time>2022-01-24T07:58:57.900Z</time>
      </trkpt>
      <trkpt lat="36.42631" lon="29.34882">
        <ele>150.151019</ele>
        <time>2022-01-24T08:00:25.892Z</time>
      </trkpt>
      <trkpt lat="36.42868" lon="29.34824">
        <ele>135.233868</ele>
        <time>2022-01-24T08:01:30.892Z</time>
      </trkpt>
      <trkpt lat="36.43082" lon="29.34616">
        <ele>106.647815</ele>
        <time>2022-01-24T08:02:18.912Z</time>
      </trkpt>
      <trkpt lat="36.43369" lon="29.34409">
        <ele>90.785898</ele>
        <time>2022-01-24T08:03:06.926Z</time>
      </trkpt>
      <trkpt lat="36.43588" lon="29.34254">
        <ele>90.503378</ele>
        <time>2022-01-24T08:04:03.893Z</time>
      </trkpt>
      <trkpt lat="36.43864" lon="29.34248">
        <ele>78.857054</ele>
        <time>2022-01-24T08:04:56.920Z</time>
      </trkpt>
      <trkpt lat="36.44097" lon="29.34345">
        <ele>79.810865</ele>
        <time>2022-01-24T08:06:18.907Z</time>
      </trkpt>
      <trkpt lat="36.44271" lon="29.34531">
        <ele>80.027587</ele>
        <time>2022-01-24T08:07:33.903Z</time>
      </trkpt>
      <trkpt lat="36.4443" lon="29.34748">
        <ele>84.131578</ele>
        <time>2022-01-24T08:08:57.897Z</time>
      </trkpt>
      <trkpt lat="36.44622" lon="29.34849">
        <ele>81.996621</ele>
        <time>2022-01-24T08:10:32.900Z</time>
      </trkpt>
      <trkpt lat="36.44841" lon="29.34855">
        <ele>91.588693</ele>
        <time>2022-01-24T08:12:55.916Z</time>
      </trkpt>
      <trkpt lat="36.45054" lon="29.34753">
        <ele>119.805521</ele>
        <time>2022-01-24T08:16:10.950Z</time>
      </trkpt>
      <trkpt lat="36.45242" lon="29.34582">
        <ele>131.862166</ele>
        <time>2022-01-24T08:18:44.915Z</time>
      </trkpt>
      <trkpt lat="36.45501" lon="29.34545">
        <ele>128.094545</ele>
        <time>2022-01-24T08:20:35.901Z</time>
      </trkpt>
      <trkpt lat="36.45733" lon="29.34567">
        <ele>132.682278</ele>
        <time>2022-01-24T08:21:53.908Z</time>
      </trkpt>
      <trkpt lat="36.45947" lon="29.3469">
        <ele>140.219025</ele>
        <time>2022-01-24T08:23:38.918Z</time>
      </trkpt>
      <trkpt lat="36.46161" lon="29.34881">
        <ele>133.566626</ele>
        <time>2022-01-24T08:24:50.897Z</time>
      </trkpt>
      <trkpt lat="36.46338" lon="29.3496">
        <ele>121.620164</ele>
        <time>2022-01-24T08:25:42.903Z</time>
      </trkpt>
      <trkpt lat="36.46685" lon="29.34878">
        <ele>93.731355</ele>
        <time>2022-01-24T08:26:30.899Z</time>
      </trkpt>
      <trkpt lat="36.46905" lon="29.35074">
        <ele>89.627726</ele>
        <time>2022-01-24T08:27:22.926Z</time>
      </trkpt>
      <trkpt lat="36.47151" lon="29.35019">
        <ele>79.501323</ele>
        <time>2022-01-24T08:28:14.921Z</time>
      </trkpt>
      <trkpt lat="36.47396" lon="29.34999">
        <ele>75.972846</ele>
        <time>2022-01-24T08:29:05.903Z</time>
      </trkpt>
      <trkpt lat="36.47652" lon="29.34949">
        <ele>73.758746</ele>
        <time>2022-01-24T08:30:20.906Z</time>
      </trkpt>
      <trkpt lat="36.47903" lon="29.35003">
        <ele>68.455728</ele>
        <time>2022-01-24T08:31:24.912Z</time>
      </trkpt>
      <trkpt lat="36.48129" lon="29.35063">
        <ele>71.737828</ele>
        <time>2022-01-24T08:32:59.951Z</time>
      </trkpt>
      <trkpt lat="36.48366" lon="29.35077">
        <ele>78.294848</ele>
        <time>2022-01-24T08:34:52.915Z</time>
      </trkpt>
      <trkpt lat="36.48646" lon="29.35048">
        <ele>75.851461</ele>
        <time>2022-01-24T08:35:43.909Z</time>
      </trkpt>
      <trkpt lat="36.48875" lon="29.35031">
        <ele>73.733522</ele>
        <time>2022-01-24T08:36:52.957Z</time>
      </trkpt>
      <trkpt lat="36.49115" lon="29.35063">
        <ele>72.705448</ele>
        <time>2022-01-24T08:38:18.918Z</time>
      </trkpt>
      <trkpt lat="36.4937" lon="29.35172">
        <ele>71.405024</ele>
        <time>2022-01-24T08:39:38.912Z</time>
      </trkpt>
      <trkpt lat="36.49613" lon="29.35266">
        <ele>78.541132</ele>
        <time>2022-01-24T08:41:11.896Z</time>
      </trkpt>
      <trkpt lat="36.4982" lon="29.35376">
        <ele>88.07544</ele>
        <time>2022-01-24T08:42:43.914Z</time>
      </trkpt>
      <trkpt lat="36.50013" lon="29.35607">
        <ele>84.014737</ele>
        <time>2022-01-24T08:43:59.911Z</time>
      </trkpt>
      <trkpt lat="36.5019" lon="29.35833">
        <ele>89.110498</ele>
        <time>2022-01-24T08:45:32.932Z</time>
      </trkpt>
      <trkpt lat="36.50392" lon="29.35909">
        <ele>90.66401</ele>
        <time>2022-01-24T08:47:17.926Z</time>
      </trkpt>
      <trkpt lat="36.50631" lon="29.35835">
        <ele>92.275339</ele>
        <time>2022-01-24T08:48:47.914Z</time>
      </trkpt>
      <trkpt lat="36.50827" lon="29.3562">
        <ele>88.179365</ele>
        <time>2022-01-24T08:49:44.913Z</time>
      </trkpt>
      <trkpt lat="36.51053" lon="29.35503">
        <ele>83.290472</ele>
        <time>2022-01-24T08:50:50.907Z</time>
      </trkpt>
      <trkpt lat="36.51297" lon="29.35578">
        <ele>82.460097</ele>
        <time>2022-01-24T08:51:47.975Z</time>
      </trkpt>
      <trkpt lat="36.51524" lon="29.35728">
        <ele>83.602474</ele>
        <time>2022-01-24T08:52:49.913Z</time>
      </trkpt>
      <trkpt lat="36.51761" lon="29.3578">
        <ele>85.469688</ele>
        <time>2022-01-24T08:54:23.929Z</time>
      </trkpt>
      <trkpt lat="36.5196" lon="29.35947">
        <ele>86.676634</ele>
        <time>2022-01-24T08:55:34.918Z</time>
      </trkpt>
      <trkpt lat="36.522" lon="29.36006">
        <ele>89.235322</ele>
        <time>2022-01-24T08:57:01.951Z</time>
      </trkpt>
      <trkpt lat="36.52448" lon="29.36003">
        <ele>92.308818</ele>
        <time>2022-01-24T08:58:21.929Z</time>
      </trkpt>
      <trkpt lat="36.52683" lon="29.36002">
        <ele>90.007491</ele>
        <time>2022-01-24T08:59:32.916Z</time>
      </trkpt>
      <trkpt lat="36.52927" lon="29.35942">
        <ele>92.432419</ele>
        <time>2022-01-24T09:00:50.932Z</time>
      </trkpt>
      <trkpt lat="36.53165" lon="29.35959">
        <ele>95.574312</ele>
        <time>2022-01-24T09:02:06.919Z</time>
      </trkpt>
      <trkpt lat="36.53409" lon="29.35961">
        <ele>101.079525</ele>
        <time>2022-01-24T09:03:55.900Z</time>
      </trkpt>
      <trkpt lat="36.53636" lon="29.35878">
        <ele>102.628108</ele>
        <time>2022-01-24T09:18:53.933Z</time>
      </trkpt>
      <trkpt lat="36.53892" lon="29.35906">
        <ele>100.035815</ele>
        <time>2022-01-24T09:20:04.931Z</time>
      </trkpt>
      <trkpt lat="36.54067" lon="29.35914">
        <ele>103.339401</ele>
        <time>2022-01-24T09:34:31.925Z</time>
      </trkpt>
      <trkpt lat="36.54169" lon="29.36189">
        <ele>108.164979</ele>
        <time>2022-01-24T09:35:52.927Z</time>
      </trkpt>
      <trkpt lat="36.54267" lon="29.36465">
        <ele>112.285689</ele>
        <time>2022-01-24T09:37:27.932Z</time>
      </trkpt>
      <trkpt lat="36.54375" lon="29.3675">
        <ele>110.301262</ele>
        <time>2022-01-24T09:38:57.939Z</time>
      </trkpt>
      <trkpt lat="36.54481" lon="29.37037">
        <ele>116.211163</ele>
        <time>2022-01-24T09:40:33.937Z</time>
      </trkpt>
      <trkpt lat="36.54566" lon="29.37322">
        <ele>119.067447</ele>
        <time>2022-01-24T09:42:05.942Z</time>
      </trkpt>
      <trkpt lat="36.54591" lon="29.37627">
        <ele>130.954937</ele>
        <time>2022-01-24T09:43:52.946Z</time>
      </trkpt>
      <trkpt lat="36.54681" lon="29.37911">
        <ele>135.875595</ele>
        <time>2022-01-24T09:45:29.924Z</time>
      </trkpt>
      <trkpt lat="36.54759" lon="29.38186">
        <ele>145.639086</ele>
        <time>2022-01-24T09:47:20.933Z</time>
      </trkpt>
      <trkpt lat="36.54986" lon="29.38334">
        <ele>139.865402</ele>
        <time>2022-01-24T09:48:44.938Z</time>
      </trkpt>
      <trkpt lat="36.55209" lon="29.38463">
        <ele>141.805708</ele>
        <time>2022-01-24T09:50:04.917Z</time>
      </trkpt>
      <trkpt lat="36.55435" lon="29.38606">
        <ele>142.461488</ele>
        <time>2022-01-24T09:51:35.951Z</time>
      </trkpt>
      <trkpt lat="36.55649" lon="29.38737">
        <ele>145.260695</ele>
        <time>2022-01-24T09:52:54.941Z</time>
      </trkpt>
      <trkpt lat="36.55876" lon="29.3885">
        <ele>153.283133</ele>
        <time>2022-01-24T09:54:36.939Z</time>
      </trkpt>
      <trkpt lat="36.56098" lon="29.38966">
        <ele>160.361162</ele>
        <time>2022-01-24T09:56:35.978Z</time>
      </trkpt>
      <trkpt lat="36.56312" lon="29.39052">
        <ele>161.792003</ele>
        <time>2022-01-24T09:58:35.950Z</time>
      </trkpt>
      <trkpt lat="36.56552" lon="29.3896">
        <ele>163.705995</ele>
        <time>2022-01-24T10:00:08.000Z</time>
      </trkpt>
      <trkpt lat="36.56803" lon="29.38878">
        <ele>167.119353</ele>
        <time>2022-01-24T10:01:24.943Z</time>
      </trkpt>
      <trkpt lat="36.57033" lon="29.38929">
        <ele>166.834551</ele>
        <time>2022-01-24T10:02:46.941Z</time>
      </trkpt>
      <trkpt lat="36.57288" lon="29.38957">
        <ele>166.416126</ele>
        <time>2022-01-24T10:04:05.962Z</time>
      </trkpt>
      <trkpt lat="36.57528" lon="29.38867">
        <ele>165.250014</ele>
        <time>2022-01-24T10:05:22.934Z</time>
      </trkpt>
      <trkpt lat="36.57739" lon="29.3873">
        <ele>173.671645</ele>
        <time>2022-01-24T10:07:13.947Z</time>
      </trkpt>
      <trkpt lat="36.57941" lon="29.38525">
        <ele>174.147652</ele>
        <time>2022-01-24T10:08:32.986Z</time>
      </trkpt>
      <trkpt lat="36.58154" lon="29.38304">
        <ele>171.038787</ele>
        <time>2022-01-24T10:09:30.946Z</time>
      </trkpt>
      <trkpt lat="36.58387" lon="29.38151">
        <ele>161.360932</ele>
        <time>2022-01-24T10:10:23.958Z</time>
      </trkpt>
      <trkpt lat="36.58693" lon="29.38026">
        <ele>149.027789</ele>
        <time>2022-01-24T10:11:09.930Z</time>
      </trkpt>
      <trkpt lat="36.58936" lon="29.37981">
        <ele>154.781259</ele>
        <time>2022-01-24T10:12:36.987Z</time>
      </trkpt>
      <trkpt lat="36.59176" lon="29.37889">
        <ele>152.443348</ele>
        <time>2022-01-24T10:13:40.949Z</time>
      </trkpt>
      <trkpt lat="36.59414" lon="29.378">
        <ele>161.421369</ele>
        <time>2022-01-24T10:15:03.957Z</time>
      </trkpt>
      <trkpt lat="36.59662" lon="29.37753">
        <ele>161.270643</ele>
        <time>2022-01-24T10:16:09.959Z</time>
      </trkpt>
      <trkpt lat="36.60005" lon="29.37678">
        <ele>143.410271</ele>
        <time>2022-01-24T10:16:57.931Z</time>
      </trkpt>
      <trkpt lat="36.603" lon="29.376">
        <ele>140.22987</ele>
        <time>2022-01-24T10:17:45.936Z</time>
      </trkpt>
      <trkpt lat="36.60571" lon="29.37552">
        <ele>134.611765</ele>
        <time>2022-01-24T10:18:38.937Z</time>
      </trkpt>
      <trkpt lat="36.6082" lon="29.37494">
        <ele>140.764946</ele>
        <time>2022-01-24T10:19:50.949Z</time>
      </trkpt>
      <trkpt lat="36.61094" lon="29.37483">
        <ele>140.735774</ele>
        <time>2022-01-24T10:20:55.955Z</time>
      </trkpt>
      <trkpt lat="36.61309" lon="29.37411">
        <ele>142.831869</ele>
        <time>2022-01-24T10:22:03.952Z</time>
      </trkpt>
      <trkpt lat="36.61503" lon="29.37245">
        <ele>155.31292</ele>
        <time>2022-01-24T10:24:10.948Z</time>
      </trkpt>
      <trkpt lat="36.61743" lon="29.37142">
        <ele>160.532424</ele>
        <time>2022-01-24T10:25:39.938Z</time>
      </trkpt>
      <trkpt lat="36.61998" lon="29.37041">
        <ele>160.528583</ele>
        <time>2022-01-24T10:27:10.965Z</time>
      </trkpt>
      <trkpt lat="36.62245" lon="29.36979">
        <ele>160.540072</ele>
        <time>2022-01-24T10:28:17.955Z</time>
      </trkpt>
      <trkpt lat="36.62495" lon="29.36923">
        <ele>160.108071</ele>
        <time>2022-01-24T10:29:29.939Z</time>
      </trkpt>
      <trkpt lat="36.62729" lon="29.36797">
        <ele>160.001709</ele>
        <time>2022-01-24T10:30:39.961Z</time>
      </trkpt>
      <trkpt lat="36.62981" lon="29.36798">
        <ele>157.541203</ele>
        <time>2022-01-24T10:31:44.945Z</time>
      </trkpt>
      <trkpt lat="36.63269" lon="29.3681">
        <ele>160.081664</ele>
        <time>2022-01-24T10:32:56.944Z</time>
      </trkpt>
      <trkpt lat="36.63557" lon="29.36814">
        <ele>156.367449</ele>
        <time>2022-01-24T10:34:06.954Z</time>
      </trkpt>
      <trkpt lat="36.63543" lon="29.36599">
        <ele>151.767785</ele>
        <time>2022-01-24T10:35:18.959Z</time>
      </trkpt>
      <trkpt lat="36.63434" lon="29.36324">
        <ele>148.873422</ele>
        <time>2022-01-24T10:36:06.948Z</time>
      </trkpt>
      <trkpt lat="36.63431" lon="29.36135">
        <ele>151.740248</ele>
        <time>2022-01-24T10:37:37.930Z</time>
      </trkpt>
      <trkpt lat="36.63533" lon="29.35857">
        <ele>158.72234</ele>
        <time>2022-01-24T10:38:53.941Z</time>
      </trkpt>
      <trkpt lat="36.63668" lon="29.35626">
        <ele>160.702707</ele>
        <time>2022-01-24T10:40:12.943Z</time>
      </trkpt>
      <trkpt lat="36.6377" lon="29.35339">
        <ele>162.130238</ele>
        <time>2022-01-24T10:41:24.947Z</time>
      </trkpt>
      <trkpt lat="36.63827" lon="29.35061">
        <ele>164.20567</ele>
        <time>2022-01-24T10:42:40.948Z</time>
      </trkpt>
      <trkpt lat="36.63871" lon="29.34773">
        <ele>165.590218</ele>
        <time>2022-01-24T10:43:59.948Z</time>
      </trkpt>
      <trkpt lat="36.63928" lon="29.34473">
        <ele>168.409754</ele>
        <time>2022-01-24T10:45:30.993Z</time>
      </trkpt>
      <trkpt lat="36.63973" lon="29.34182">
        <ele>174.165758</ele>
        <time>2022-01-24T10:46:47.958Z</time>
      </trkpt>
      <trkpt lat="36.64023" lon="29.33879">
        <ele>179.819328</ele>
        <time>2022-01-24T10:48:14.964Z</time>
      </trkpt>
      <trkpt lat="36.64067" lon="29.33583">
        <ele>185.896306</ele>
        <time>2022-01-24T10:49:47.953Z</time>
      </trkpt>
      <trkpt lat="36.6412" lon="29.33273">
        <ele>185.244277</ele>
        <time>2022-01-24T10:51:18.953Z</time>
      </trkpt>
      <trkpt lat="36.64185" lon="29.3295">
        <ele>185.331564</ele>
        <time>2022-01-24T10:52:53.951Z</time>
      </trkpt>
      <trkpt lat="36.64228" lon="29.3265">
        <ele>190.626801</ele>
        <time>2022-01-24T10:54:25.966Z</time>
      </trkpt>
      <trkpt lat="36.64279" lon="29.32343">
        <ele>189.208544</ele>
        <time>2022-01-24T10:56:01.966Z</time>
      </trkpt>
      <trkpt lat="36.64323" lon="29.32035">
        <ele>190.322957</ele>
        <time>2022-01-24T10:57:37.952Z</time>
      </trkpt>
      <trkpt lat="36.6432" lon="29.31725">
        <ele>196.870056</ele>
        <time>2022-01-24T10:59:08.948Z</time>
      </trkpt>
      <trkpt lat="36.64312" lon="29.31419">
        <ele>196.888175</ele>
        <time>2022-01-24T11:00:28.951Z</time>
      </trkpt>
      <trkpt lat="36.64299" lon="29.31108">
        <ele>204.010315</ele>
        <time>2022-01-24T11:01:59.939Z</time>
      </trkpt>
      <trkpt lat="36.64286" lon="29.30789">
        <ele>207.116572</ele>
        <time>2022-01-24T11:03:35.949Z</time>
      </trkpt>
      <trkpt lat="36.64275" lon="29.30489">
        <ele>211.30191</ele>
        <time>2022-01-24T11:05:06.941Z</time>
      </trkpt>
      <trkpt lat="36.64264" lon="29.30168">
        <ele>213.608834</ele>
        <time>2022-01-24T11:06:42.996Z</time>
      </trkpt>
      <trkpt lat="36.64253" lon="29.29857">
        <ele>221.388273</ele>
        <time>2022-01-24T11:08:18.955Z</time>
      </trkpt>
      <trkpt lat="36.64227" lon="29.29549">
        <ele>223.019415</ele>
        <time>2022-01-24T11:09:49.958Z</time>
      </trkpt>
      <trkpt lat="36.64171" lon="29.29231">
        <ele>227.873868</ele>
        <time>2022-01-24T11:11:25.989Z</time>
      </trkpt>
      <trkpt lat="36.64102" lon="29.28931">
        <ele>230.972595</ele>
        <time>2022-01-24T11:12:45.951Z</time>
      </trkpt>
      <trkpt lat="36.64032" lon="29.28601">
        <ele>234.930678</ele>
        <time>2022-01-24T11:13:57.976Z</time>
      </trkpt>
      <trkpt lat="36.63965" lon="29.28302">
        <ele>238.372589</ele>
        <time>2022-01-24T11:15:06.976Z</time>
      </trkpt>
      <trkpt lat="36.63894" lon="29.2798">
        <ele>239.037137</ele>
        <time>2022-01-24T11:16:18.971Z</time>
      </trkpt>
      <trkpt lat="36.63828" lon="29.27654">
        <ele>235.596367</ele>
        <time>2022-01-24T11:17:30.961Z</time>
      </trkpt>
      <trkpt lat="36.63712" lon="29.27414">
        <ele>235.828067</ele>
        <time>2022-01-24T11:18:46.961Z</time>
      </trkpt>
      <trkpt lat="36.63513" lon="29.27169">
        <ele>229.757587</ele>
        <time>2022-01-24T11:21:46.976Z</time>
      </trkpt>
      <trkpt lat="36.63314" lon="29.26869">
        <ele>215.588956</ele>
        <time>2022-01-24T11:22:46.985Z</time>
      </trkpt>
      <trkpt lat="36.63151" lon="29.26574">
        <ele>204.802929</ele>
        <time>2022-01-24T11:23:38.963Z</time>
      </trkpt>
      <trkpt lat="36.63175" lon="29.26185">
        <ele>183.127527</ele>
        <time>2022-01-24T11:24:14.968Z</time>
      </trkpt>
      <trkpt lat="36.63082" lon="29.25855">
        <ele>183.904299</ele>
        <time>2022-01-24T11:25:19.959Z</time>
      </trkpt>
      <trkpt lat="36.62825" lon="29.25555">
        <ele>175.807326</ele>
        <time>2022-01-24T11:26:07.991Z</time>
      </trkpt>
      <trkpt lat="36.62658" lon="29.25254">
        <ele>166.164573</ele>
        <time>2022-01-24T11:26:54.967Z</time>
      </trkpt>
      <trkpt lat="36.6263" lon="29.24922">
        <ele>165.23739</ele>
        <time>2022-01-24T11:27:48.977Z</time>
      </trkpt>
      <trkpt lat="36.62609" lon="29.24601">
        <ele>158.160284</ele>
        <time>2022-01-24T11:28:42.984Z</time>
      </trkpt>
      <trkpt lat="36.62477" lon="29.24257">
        <ele>150.713929</ele>
        <time>2022-01-24T11:29:34.959Z</time>
      </trkpt>
      <trkpt lat="36.62456" lon="29.23849">
        <ele>146.425598</ele>
        <time>2022-01-24T11:30:27.964Z</time>
      </trkpt>
      <trkpt lat="36.62379" lon="29.23509">
        <ele>153.312478</ele>
        <time>2022-01-24T11:31:27.967Z</time>
      </trkpt>
      <trkpt lat="36.62501" lon="29.23177">
        <ele>132.089605</ele>
        <time>2022-01-24T11:32:15.954Z</time>
      </trkpt>
      <trkpt lat="36.62621" lon="29.22801">
        <ele>125.815695</ele>
        <time>2022-01-24T11:33:01.975Z</time>
      </trkpt>
      <trkpt lat="36.62688" lon="29.22461">
        <ele>121.135552</ele>
        <time>2022-01-24T11:33:49.984Z</time>
      </trkpt>
      <trkpt lat="36.62749" lon="29.22148">
        <ele>119.407653</ele>
        <time>2022-01-24T11:34:50.960Z</time>
      </trkpt>
      <trkpt lat="36.62816" lon="29.21848">
        <ele>127.747123</ele>
        <time>2022-01-24T11:35:43.948Z</time>
      </trkpt>
      <trkpt lat="36.62922" lon="29.2157">
        <ele>124.257032</ele>
        <time>2022-01-24T11:36:36.956Z</time>
      </trkpt>
      <trkpt lat="36.63024" lon="29.21263">
        <ele>110.307542</ele>
        <time>2022-01-24T11:37:24.979Z</time>
      </trkpt>
      <trkpt lat="36.6311" lon="29.20985">
        <ele>108.215877</ele>
        <time>2022-01-24T11:38:11.966Z</time>
      </trkpt>
      <trkpt lat="36.6321" lon="29.20679">
        <ele>108.010948</ele>
        <time>2022-01-24T11:38:59.980Z</time>
      </trkpt>
      <trkpt lat="36.63304" lon="29.20375">
        <ele>101.868316</ele>
        <time>2022-01-24T11:39:47.957Z</time>
      </trkpt>
      <trkpt lat="36.63393" lon="29.2007">
        <ele>94.576586</ele>
        <time>2022-01-24T11:40:35.965Z</time>
      </trkpt>
      <trkpt lat="36.63474" lon="29.19806">
        <ele>90.830032</ele>
        <time>2022-01-24T11:41:22.968Z</time>
      </trkpt>
      <trkpt lat="36.6356" lon="29.19534">
        <ele>89.622612</ele>
        <time>2022-01-24T11:42:12.949Z</time>
      </trkpt>
      <trkpt lat="36.63654" lon="29.1924">
        <ele>82.838031</ele>
        <time>2022-01-24T11:43:07.991Z</time>
      </trkpt>
      <trkpt lat="36.63749" lon="29.1893">
        <ele>84.77919</ele>
        <time>2022-01-24T11:44:07.973Z</time>
      </trkpt>
      <trkpt lat="36.63836" lon="29.18653">
        <ele>84.36381</ele>
        <time>2022-01-24T11:44:57.955Z</time>
      </trkpt>
      <trkpt lat="36.63927" lon="29.1836">
        <ele>77.853856</ele>
        <time>2022-01-24T11:45:53.977Z</time>
      </trkpt>
      <trkpt lat="36.64015" lon="29.18082">
        <ele>76.217422</ele>
        <time>2022-01-24T11:46:41.952Z</time>
      </trkpt>
      <trkpt lat="36.64121" lon="29.17843">
        <ele>78.681688</ele>
        <time>2022-01-24T11:47:27.959Z</time>
      </trkpt>
      <trkpt lat="36.6428" lon="29.17597">
        <ele>74.649572</ele>
        <time>2022-01-24T11:48:25.974Z</time>
      </trkpt>
      <trkpt lat="36.6415" lon="29.17321">
        <ele>74.929656</ele>
        <time>2022-01-24T11:49:18.953Z</time>
      </trkpt>
      <trkpt lat="36.64023" lon="29.17042">
        <ele>69.083158</ele>
        <time>2022-01-24T11:50:04.982Z</time>
      </trkpt>
      <trkpt lat="36.63891" lon="29.16747">
        <ele>65.719465</ele>
        <time>2022-01-24T11:50:54.995Z</time>
      </trkpt>
      <trkpt lat="36.63769" lon="29.16468">
        <ele>60.933578</ele>
        <time>2022-01-24T11:51:42.979Z</time>
      </trkpt>
      <trkpt lat="36.63643" lon="29.16178">
        <ele>63.19593</ele>
        <time>2022-01-24T11:52:28.945Z</time>
      </trkpt>
      <trkpt lat="36.63519" lon="29.1592">
        <ele>62.473374</ele>
        <time>2022-01-24T11:53:17.965Z</time>
      </trkpt>
      <trkpt lat="36.63396" lon="29.15608">
        <ele>66.718563</ele>
        <time>2022-01-24T11:54:05.981Z</time>
      </trkpt>
      <trkpt lat="36.63295" lon="29.15305">
        <ele>57.383045</ele>
        <time>2022-01-24T11:54:54.970Z</time>
      </trkpt>
      <trkpt lat="36.63183" lon="29.15031">
        <ele>51.360622</ele>
        <time>2022-01-24T11:55:43.967Z</time>
      </trkpt>
      <trkpt lat="36.63086" lon="29.14752">
        <ele>50.093687</ele>
        <time>2022-01-24T11:56:31.974Z</time>
      </trkpt>
      <trkpt lat="36.62978" lon="29.14484">
        <ele>50.059165</ele>
        <time>2022-01-24T11:57:19.984Z</time>
      </trkpt>
      <trkpt lat="36.62885" lon="29.14215">
        <ele>54.02479</ele>
        <time>2022-01-24T11:58:06.965Z</time>
      </trkpt>
      <trkpt lat="36.62783" lon="29.13939">
        <ele>53.085267</ele>
        <time>2022-01-24T11:58:58.963Z</time>
      </trkpt>
      <trkpt lat="36.62663" lon="29.13631">
        <ele>41.697711</ele>
        <time>2022-01-24T12:00:55.961Z</time>
      </trkpt>
      <trkpt lat="36.62547" lon="29.13349">
        <ele>28.292716</ele>
        <time>2022-01-24T12:01:49.988Z</time>
      </trkpt>
      <trkpt lat="36.62439" lon="29.13137">
        <ele>41.814278</ele>
        <time>2022-01-24T12:04:43.969Z</time>
      </trkpt>
      <trkpt lat="36.62396" lon="29.12833">
        <ele>28.354658</ele>
        <time>2022-01-24T12:06:05.968Z</time>
      </trkpt>
      <trkpt lat="36.62293" lon="29.12531">
        <ele>25.236224</ele>
        <time>2022-01-24T12:07:23.953Z</time>
      </trkpt>
      <trkpt lat="36.62201" lon="29.12219">
        <ele>26.373017</ele>
        <time>2022-01-24T12:08:25.970Z</time>
      </trkpt>
      <trkpt lat="36.62191" lon="29.1189">
        <ele>50.557993</ele>
        <time>2022-01-24T12:09:38.006Z</time>
      </trkpt>
      <trkpt lat="36.62211" lon="29.11551">
        <ele>43.074534</ele>
        <time>2022-01-24T12:10:56.999Z</time>
      </trkpt>
      <trkpt lat="36.6221" lon="29.11228">
        <ele>44.692095</ele>
        <time>2022-01-24T12:12:04.983Z</time>
      </trkpt>
      <trkpt lat="36.62184" lon="29.10934">
        <ele>41.7749</ele>
        <time>2022-01-24T12:13:18.974Z</time>
      </trkpt>
      <trkpt lat="36.62035" lon="29.10947">
        <ele>40.222569</ele>
        <time>2022-01-24T12:23:30.654Z</time>
      </trkpt>
    </trkseg>
  </trk>
</gpx>